createdAt,value
2019-03-22T00:00:34.507Z,17.67
2019-03-22T00:03:02.486Z,18.80
2019-03-22T00:05:30.290Z,19.20
2019-03-22T00:07:58.143Z,21.10
2019-03-22T00:10:26.056Z,18.63
2019-03-22T00:12:53.955Z,18.77
2019-03-22T00:15:21.872Z,18.13
2019-03-22T00:17:49.704Z,16.73
2019-03-22T00:20:17.567Z,16.87
2019-03-22T00:22:45.373Z,24.47
2019-03-22T00:25:13.163Z,19.80
2019-03-22T00:27:40.999Z,20.20
2019-03-22T00:30:09.003Z,19.17
2019-03-22T00:32:36.914Z,20.60
2019-03-22T00:35:05.782Z,25.33
2019-03-22T00:37:33.605Z,22.40
2019-03-22T00:40:01.435Z,22.33
2019-03-22T00:42:29.299Z,21.50
2019-03-22T00:44:57.092Z,23.80
2019-03-22T00:47:25.173Z,25.30
2019-03-22T00:49:53.004Z,24.93
2019-03-22T00:52:20.820Z,23.60
2019-03-22T00:54:48.655Z,22.80
2019-03-22T00:57:27.693Z,23.93
2019-03-22T00:59:46.161Z,29.83
2019-03-22T01:02:14.042Z,27.00
2019-03-22T01:04:41.835Z,28.80
2019-03-22T01:07:09.707Z,24.20
2019-03-22T01:09:37.505Z,21.37
2019-03-22T01:12:05.347Z,28.27
2019-03-22T01:14:33.207Z,26.17
2019-03-22T01:17:01.050Z,25.43
2019-03-22T01:19:28.839Z,25.23
2019-03-22T01:21:56.669Z,27.07
2019-03-22T01:24:24.468Z,24.03
2019-03-22T01:26:52.269Z,27.17
2019-03-22T01:29:20.138Z,27.57
2019-03-22T01:31:47.948Z,27.87
2019-03-22T01:34:15.760Z,30.00
2019-03-22T01:36:43.615Z,26.03
2019-03-22T01:39:11.423Z,23.90
2019-03-22T01:41:39.267Z,25.83
2019-03-22T01:44:07.103Z,23.37
2019-03-22T01:46:34.917Z,27.53
2019-03-22T01:49:02.802Z,22.37
2019-03-22T01:51:30.607Z,20.60
2019-03-22T01:53:58.394Z,20.67
2019-03-22T01:56:26.235Z,26.07
2019-03-22T01:58:54.026Z,22.70
2019-03-22T02:01:21.906Z,26.13
2019-03-22T02:03:49.714Z,25.37
2019-03-22T02:06:17.541Z,26.23
2019-03-22T02:08:45.324Z,30.07
2019-03-22T02:11:13.155Z,27.63
2019-03-22T02:13:40.962Z,31.30
2019-03-22T02:16:08.865Z,31.87
2019-03-22T02:18:36.955Z,27.23
2019-03-22T02:21:04.794Z,32.73
2019-03-22T02:23:32.601Z,31.80
2019-03-22T02:26:00.417Z,31.93
2019-03-22T02:28:28.204Z,33.40
2019-03-22T02:30:56.029Z,32.93
2019-03-22T02:33:23.837Z,36.70
2019-03-22T02:35:51.640Z,34.10
2019-03-22T02:38:19.412Z,33.30
2019-03-22T02:40:47.263Z,31.17
2019-03-22T02:43:15.170Z,30.77
2019-03-22T02:45:42.956Z,34.07
2019-03-22T02:48:10.783Z,31.93
2019-03-22T02:50:38.707Z,31.03
2019-03-22T02:53:06.532Z,28.70
2019-03-22T02:55:34.371Z,30.93
2019-03-22T02:58:02.179Z,34.33
2019-03-22T03:00:29.964Z,30.13
2019-03-22T03:02:57.815Z,33.23
2019-03-22T03:05:25.721Z,31.63
2019-03-22T03:07:53.545Z,35.67
2019-03-22T03:10:21.358Z,30.80
2019-03-22T03:12:49.186Z,35.60
2019-03-22T03:15:17.730Z,38.10
2019-03-22T03:17:45.738Z,35.83
2019-03-22T03:20:14.715Z,39.47
2019-03-22T03:22:42.599Z,35.97
2019-03-22T03:25:10.796Z,36.53
2019-03-22T03:27:38.584Z,44.70
2019-03-22T03:30:10.101Z,42.90
2019-03-22T03:32:37.950Z,46.10
2019-03-22T03:35:06.247Z,47.63
2019-03-22T03:37:34.077Z,51.00
2019-03-22T03:40:01.869Z,51.37
2019-03-22T03:42:29.761Z,51.53
2019-03-22T03:44:57.588Z,54.10
2019-03-22T03:47:25.412Z,48.27
2019-03-22T03:49:53.268Z,45.57
2019-03-22T03:52:21.095Z,46.27
2019-03-22T03:54:48.932Z,54.33
2019-03-22T03:57:16.706Z,49.53
2019-03-22T03:59:44.534Z,45.33
2019-03-22T04:02:12.376Z,56.30
2019-03-22T04:04:40.238Z,54.03
2019-03-22T04:07:08.052Z,45.50
2019-03-22T04:09:35.820Z,50.03
2019-03-22T04:12:03.664Z,53.33
2019-03-22T04:14:31.457Z,61.10
2019-03-22T04:16:59.298Z,60.10
2019-03-22T04:19:27.121Z,61.07
2019-03-22T04:21:54.945Z,61.03
2019-03-22T04:24:22.762Z,57.40
2019-03-22T04:26:50.626Z,56.07
2019-03-22T04:29:18.416Z,53.47
2019-03-22T04:31:46.211Z,52.93
2019-03-22T04:34:14.099Z,52.37
2019-03-22T04:36:41.916Z,68.60
2019-03-22T04:39:09.693Z,57.23
2019-03-22T04:41:37.529Z,63.23
2019-03-22T04:44:05.395Z,66.03
2019-03-22T04:46:34.090Z,56.53
2019-03-22T04:49:02.068Z,54.37
2019-03-22T04:51:30.597Z,54.47
2019-03-22T04:54:03.132Z,53.93
2019-03-22T04:56:33.527Z,62.50
2019-03-22T04:59:04.224Z,55.83
2019-03-22T05:01:33.005Z,61.90
2019-03-22T05:04:02.669Z,56.03
2019-03-22T05:06:31.972Z,52.93
2019-03-22T05:09:00.654Z,53.90
2019-03-22T05:11:29.166Z,55.97
2019-03-22T05:14:00.506Z,52.90
2019-03-22T05:16:29.571Z,51.90
2019-03-22T05:19:00.165Z,53.63
2019-03-22T05:21:29.272Z,52.27
2019-03-22T05:24:01.124Z,53.20
2019-03-22T05:26:30.696Z,59.77
2019-03-22T05:28:59.427Z,57.90
2019-03-22T05:31:39.110Z,52.33
2019-03-22T05:34:06.975Z,54.50
2019-03-22T05:36:34.769Z,54.77
2019-03-22T05:39:04.705Z,55.77
2019-03-22T05:41:32.525Z,63.57
2019-03-22T05:44:00.348Z,62.90
2019-03-22T05:46:28.175Z,53.97
2019-03-22T05:48:56.138Z,55.70
2019-03-22T05:51:23.970Z,63.43
2019-03-22T05:53:51.796Z,62.13
2019-03-22T05:56:19.613Z,68.87
2019-03-22T05:58:47.414Z,64.37
2019-03-22T06:01:15.260Z,60.50
2019-03-22T06:03:43.097Z,68.90
2019-03-22T06:06:10.975Z,66.37
2019-03-22T06:08:38.830Z,62.20
2019-03-22T06:11:06.654Z,57.13
2019-03-22T06:13:34.537Z,65.50
2019-03-22T06:16:02.369Z,56.50
2019-03-22T06:18:30.168Z,60.40
2019-03-22T06:20:57.996Z,67.43
2019-03-22T06:23:25.791Z,60.53
2019-03-22T06:25:53.598Z,55.57
2019-03-22T06:28:21.399Z,74.00
2019-03-22T06:30:49.167Z,66.10
2019-03-22T06:33:17.000Z,67.33
2019-03-22T06:35:44.776Z,63.30
2019-03-22T06:38:12.544Z,72.23
2019-03-22T06:40:40.405Z,63.93
2019-03-22T06:43:08.185Z,65.17
2019-03-22T06:45:35.987Z,65.80
2019-03-22T06:48:03.956Z,63.77
2019-03-22T06:50:38.211Z,63.37
2019-03-22T06:53:06.001Z,67.27
2019-03-22T06:55:33.878Z,67.50
2019-03-22T06:58:01.732Z,67.73
2019-03-22T07:00:29.542Z,75.57
2019-03-22T07:02:57.438Z,71.33
2019-03-22T07:05:25.269Z,74.73
2019-03-22T07:07:53.087Z,75.90
2019-03-22T07:10:21.026Z,78.93
2019-03-22T07:12:48.836Z,87.73
2019-03-22T07:15:16.661Z,86.83
2019-03-22T07:17:44.494Z,75.23
2019-03-22T07:20:12.549Z,82.80
2019-03-22T07:22:40.706Z,80.83
2019-03-22T07:25:10.144Z,72.80
2019-03-22T07:27:37.982Z,74.33
2019-03-22T07:30:17.612Z,76.47
2019-03-22T07:32:36.167Z,76.13
2019-03-22T07:35:04.780Z,81.30
2019-03-22T07:37:32.581Z,76.67
2019-03-22T07:40:00.403Z,78.67
2019-03-22T07:42:28.242Z,79.50
2019-03-22T07:44:56.039Z,84.80
2019-03-22T07:47:23.838Z,86.63
2019-03-22T07:49:51.703Z,79.67
2019-03-22T07:52:19.589Z,99.23
2019-03-22T07:54:47.441Z,80.23
2019-03-22T07:57:15.221Z,78.17
2019-03-22T07:59:43.031Z,86.63
2019-03-22T08:02:10.865Z,93.20
2019-03-22T08:04:38.820Z,93.30
2019-03-22T08:07:06.651Z,83.00
2019-03-22T08:09:34.498Z,99.37
2019-03-22T08:12:02.351Z,98.23
2019-03-22T08:14:30.350Z,97.37
2019-03-22T08:17:00.848Z,86.80
2019-03-22T08:19:28.717Z,94.13
2019-03-22T08:21:56.541Z,75.10
2019-03-22T08:24:24.392Z,79.83
2019-03-22T08:26:52.284Z,71.43
2019-03-22T08:29:20.068Z,80.23
2019-03-22T08:31:47.887Z,78.73
2019-03-22T08:34:15.679Z,83.20
2019-03-22T08:36:43.496Z,83.57
2019-03-22T08:39:11.316Z,87.30
2019-03-22T08:41:39.176Z,86.80
2019-03-22T08:44:06.979Z,93.93
2019-03-22T08:46:34.867Z,89.37
2019-03-22T08:49:02.873Z,86.70
2019-03-22T08:51:30.735Z,83.00
2019-03-22T08:53:58.551Z,85.00
2019-03-22T08:56:26.352Z,81.77
2019-03-22T08:58:54.214Z,71.50
2019-03-22T09:01:22.128Z,69.83
2019-03-22T09:03:49.958Z,75.33
2019-03-22T09:06:17.744Z,75.00
2019-03-22T09:08:47.778Z,75.00
2019-03-22T09:11:18.026Z,73.60
2019-03-22T09:13:45.132Z,65.63
2019-03-22T09:16:13.011Z,71.03
2019-03-22T09:18:40.927Z,77.70
2019-03-22T09:21:08.900Z,85.90
2019-03-22T09:23:36.703Z,88.93
2019-03-22T09:26:04.461Z,84.23
2019-03-22T09:28:32.299Z,75.30
2019-03-22T09:31:09.767Z,75.53
2019-03-22T09:33:29.815Z,92.40
2019-03-22T09:35:57.787Z,85.17
2019-03-22T09:38:28.445Z,80.00
2019-03-22T09:40:55.363Z,74.40
2019-03-22T09:43:23.217Z,85.73
2019-03-22T09:45:51.122Z,70.77
2019-03-22T09:48:18.928Z,76.93
2019-03-22T09:50:46.703Z,66.90
2019-03-22T09:53:14.588Z,79.73
2019-03-22T09:55:42.407Z,73.20
2019-03-22T09:58:10.271Z,68.67
2019-03-22T10:00:38.180Z,81.23
2019-03-22T10:03:07.098Z,72.87
2019-03-22T10:05:37.634Z,80.70
2019-03-22T10:08:05.500Z,68.87
2019-03-22T10:10:33.502Z,70.37
2019-03-22T10:13:02.605Z,64.00
2019-03-22T10:15:30.407Z,73.97
2019-03-22T10:17:58.223Z,70.80
2019-03-22T10:20:26.080Z,71.00
2019-03-22T10:22:53.909Z,72.23
2019-03-22T10:25:21.914Z,73.77
2019-03-22T10:27:49.791Z,79.67
2019-03-22T10:30:18.087Z,76.60
2019-03-22T10:32:45.903Z,72.30
2019-03-22T10:35:25.572Z,72.70
2019-03-22T10:37:43.645Z,86.97
2019-03-22T10:40:11.560Z,73.60
2019-03-22T10:42:39.461Z,77.87
2019-03-22T10:45:07.899Z,76.77
2019-03-22T10:47:35.771Z,78.73
2019-03-22T10:50:04.270Z,82.57
2019-03-22T10:52:32.085Z,81.70
2019-03-22T10:55:17.496Z,75.63
2019-03-22T10:57:29.623Z,79.73
2019-03-22T10:59:57.503Z,81.20
2019-03-22T11:02:25.388Z,76.73
2019-03-22T11:04:53.201Z,79.60
2019-03-22T11:07:21.158Z,78.67
2019-03-22T11:09:51.793Z,79.13
2019-03-22T11:12:19.561Z,76.00
2019-03-22T11:14:47.418Z,81.47
2019-03-22T11:17:15.205Z,81.37
2019-03-22T11:19:43.073Z,78.87
2019-03-22T11:22:14.409Z,89.60
2019-03-22T11:24:42.229Z,87.07
2019-03-22T11:27:13.916Z,79.33
2019-03-22T11:29:41.684Z,82.87
2019-03-22T11:32:12.779Z,72.67
2019-03-22T11:34:39.258Z,81.30
2019-03-22T11:37:07.850Z,74.03
2019-03-22T11:39:35.779Z,89.80
2019-03-22T11:42:03.561Z,76.83
2019-03-22T11:44:31.493Z,89.50
2019-03-22T11:46:59.351Z,75.43
2019-03-22T11:49:27.160Z,72.53
2019-03-22T11:51:55.008Z,77.00
2019-03-22T11:54:22.841Z,71.13
2019-03-22T11:56:50.645Z,82.17
2019-03-22T11:59:18.446Z,72.40
2019-03-22T12:01:46.249Z,69.00
2019-03-22T12:04:16.813Z,73.80
2019-03-22T12:06:44.635Z,77.60
2019-03-22T12:09:12.388Z,75.13
2019-03-22T12:11:42.083Z,74.43
2019-03-22T12:14:09.922Z,78.00
2019-03-22T12:16:37.780Z,71.90
2019-03-22T12:19:05.710Z,70.67
2019-03-22T12:21:33.462Z,64.50
2019-03-22T12:24:01.314Z,69.53
2019-03-22T12:26:29.199Z,68.60
2019-03-22T12:28:57.029Z,73.93
2019-03-22T12:31:24.807Z,72.43
2019-03-22T12:33:52.616Z,70.63
2019-03-22T12:36:20.427Z,69.93
2019-03-22T12:38:48.202Z,68.20
2019-03-22T12:41:16.019Z,65.73
2019-03-22T12:43:43.826Z,68.93
2019-03-22T12:46:11.596Z,60.00
2019-03-22T12:48:39.389Z,64.67
2019-03-22T12:51:07.267Z,61.57
2019-03-22T12:53:35.098Z,64.63
2019-03-22T12:56:03.224Z,65.67
2019-03-22T12:58:31.037Z,61.17
2019-03-22T13:00:59.140Z,66.00
2019-03-22T13:03:26.998Z,63.60
2019-03-22T13:05:54.808Z,60.17
2019-03-22T13:08:22.580Z,58.10
2019-03-22T13:10:50.402Z,57.17
2019-03-22T13:13:18.200Z,52.77
2019-03-22T13:15:46.001Z,59.20
2019-03-22T13:18:13.860Z,58.57
2019-03-22T13:20:41.698Z,58.43
2019-03-22T13:23:09.469Z,62.83
2019-03-22T13:25:37.327Z,55.83
2019-03-22T13:28:05.091Z,56.23
2019-03-22T13:30:34.539Z,64.30
2019-03-22T13:33:02.669Z,57.07
2019-03-22T13:35:30.525Z,61.47
2019-03-22T13:37:58.321Z,54.60
2019-03-22T13:40:26.138Z,58.57
2019-03-22T13:42:54.047Z,53.97
2019-03-22T13:45:21.933Z,63.63
2019-03-22T13:47:49.786Z,58.27
2019-03-22T13:50:17.573Z,51.13
2019-03-22T13:52:45.395Z,52.40
2019-03-22T13:55:13.306Z,43.33
2019-03-22T13:57:41.118Z,47.37
2019-03-22T14:00:09.128Z,50.33
2019-03-22T14:02:37.610Z,54.10
2019-03-22T14:05:06.144Z,46.67
2019-03-22T14:07:33.896Z,46.03
2019-03-22T14:10:02.039Z,48.17
2019-03-22T14:12:37.070Z,50.50
2019-03-22T14:14:59.794Z,48.33
2019-03-22T14:17:27.726Z,49.37
2019-03-22T14:19:55.578Z,45.80
2019-03-22T14:22:23.395Z,51.17
2019-03-22T14:24:51.218Z,50.97
2019-03-22T14:27:19.024Z,42.83
2019-03-22T14:29:46.843Z,43.27
2019-03-22T14:32:14.601Z,44.97
2019-03-22T14:34:42.546Z,39.57
2019-03-22T14:37:10.362Z,39.87
2019-03-22T14:39:38.341Z,38.90
2019-03-22T14:42:06.347Z,51.33
2019-03-22T14:44:34.245Z,46.87
2019-03-22T14:47:02.111Z,37.70
2019-03-22T14:49:29.951Z,39.43
2019-03-22T14:51:57.807Z,40.30
2019-03-22T14:54:25.569Z,46.43
2019-03-22T14:56:53.453Z,44.90
2019-03-22T14:59:22.209Z,43.40
2019-03-22T15:01:50.080Z,42.73
2019-03-22T15:04:17.879Z,39.27
2019-03-22T15:06:45.743Z,41.07
2019-03-22T15:09:13.551Z,38.30
2019-03-22T15:11:41.365Z,40.53
2019-03-22T15:14:19.557Z,39.67
2019-03-22T15:17:06.911Z,33.90
2019-03-22T15:20:09.262Z,38.23
2019-03-22T15:23:10.693Z,36.27
2019-03-22T15:25:58.040Z,34.03
2019-03-22T15:28:49.914Z,37.33
2019-03-22T15:31:45.321Z,37.17
2019-03-22T15:34:30.284Z,33.90
2019-03-22T15:40:05.004Z,35.07
2019-03-22T15:42:32.847Z,38.23
2019-03-22T15:45:00.854Z,35.83
2019-03-22T15:47:28.696Z,35.93
2019-03-22T15:49:56.504Z,37.00
2019-03-22T15:52:24.296Z,38.87
2019-03-22T15:54:52.115Z,38.80
2019-03-22T15:57:19.917Z,33.63
2019-03-22T15:59:47.735Z,35.97
2019-03-22T16:02:15.625Z,37.60
2019-03-22T16:04:43.471Z,41.63
2019-03-22T16:07:11.337Z,31.60
2019-03-22T16:09:45.281Z,40.07
2019-03-22T16:12:13.078Z,40.40
2019-03-22T16:14:40.893Z,39.17
2019-03-22T16:17:08.689Z,44.60
2019-03-22T16:19:36.568Z,37.67
2019-03-22T16:22:05.538Z,50.43
2019-03-22T16:24:33.360Z,52.70
2019-03-22T16:27:01.146Z,52.63
2019-03-22T16:29:29.025Z,45.83
2019-03-22T16:31:56.878Z,46.13
2019-03-22T16:34:24.831Z,53.80
2019-03-22T16:36:52.620Z,54.07
2019-03-22T16:39:20.417Z,53.87
2019-03-22T16:41:48.220Z,50.07
2019-03-22T16:44:16.052Z,59.10
2019-03-22T16:46:43.875Z,46.57
2019-03-22T16:49:11.800Z,64.87
2019-03-22T16:51:39.651Z,54.03
2019-03-22T16:54:07.489Z,54.37
2019-03-22T16:56:35.351Z,52.90
2019-03-22T16:59:03.226Z,51.07
2019-03-22T17:01:30.999Z,52.00
2019-03-22T17:04:04.435Z,51.60
2019-03-22T17:06:28.976Z,43.90
2019-03-22T17:08:56.780Z,72.23
2019-03-22T17:11:24.649Z,71.53
2019-03-22T17:13:52.439Z,79.43
2019-03-22T17:16:20.264Z,89.83
2019-03-22T17:18:48.271Z,77.70
2019-03-22T17:21:16.233Z,70.33
2019-03-22T17:23:44.048Z,61.23
2019-03-22T17:26:12.126Z,61.87
2019-03-22T17:28:39.953Z,68.40
2019-03-22T17:31:07.784Z,77.27
2019-03-22T17:33:35.602Z,63.90
2019-03-22T17:36:04.063Z,53.60
2019-03-22T17:38:32.201Z,75.90
2019-03-22T17:41:00.074Z,86.20
2019-03-22T17:43:27.941Z,58.07
2019-03-22T17:45:55.807Z,47.57
2019-03-22T17:48:23.658Z,47.77
2019-03-22T17:50:51.479Z,83.63
2019-03-22T17:53:19.325Z,55.93
2019-03-22T17:55:47.165Z,111.43
2019-03-22T17:58:15.023Z,64.30
2019-03-22T18:00:43.134Z,52.67
2019-03-22T18:03:10.956Z,72.80
2019-03-22T18:05:38.783Z,62.27
2019-03-22T18:08:06.594Z,66.83
2019-03-22T18:10:34.442Z,89.80
2019-03-22T18:13:02.276Z,94.97
2019-03-22T18:15:30.176Z,43.87
2019-03-22T18:17:58.023Z,51.50
2019-03-22T18:20:25.881Z,86.30
2019-03-22T18:22:53.759Z,50.07
2019-03-22T18:25:21.586Z,95.07
2019-03-22T18:27:49.429Z,59.73
2019-03-22T18:30:17.383Z,64.77
2019-03-22T18:32:45.284Z,140.87
2019-03-22T18:35:13.291Z,69.07
2019-03-22T18:37:41.123Z,69.93
2019-03-22T18:40:09.319Z,51.23
2019-03-22T18:42:37.283Z,53.20
2019-03-22T18:45:06.616Z,50.27
2019-03-22T18:47:34.413Z,48.17
2019-03-22T18:50:02.255Z,45.07
2019-03-22T18:52:30.083Z,47.93
2019-03-22T18:54:57.865Z,51.13
2019-03-22T18:57:25.668Z,72.90
2019-03-22T18:59:53.490Z,88.43
2019-03-22T19:02:21.400Z,119.67
2019-03-22T19:04:49.261Z,115.27
2019-03-22T19:07:17.079Z,99.10
2019-03-22T19:09:44.910Z,48.80
2019-03-22T19:12:12.705Z,49.50
2019-03-22T19:14:40.593Z,55.40
2019-03-22T19:17:08.384Z,72.97
2019-03-22T19:19:36.210Z,55.93
2019-03-22T19:22:04.050Z,45.27
2019-03-22T19:24:31.900Z,47.53
2019-03-22T19:26:59.810Z,59.60
2019-03-22T19:29:27.607Z,51.40
2019-03-22T19:31:55.427Z,53.67
2019-03-22T19:34:23.273Z,45.23
2019-03-22T19:36:51.181Z,45.67
2019-03-22T19:39:19.051Z,52.70
2019-03-22T19:41:46.884Z,53.37
2019-03-22T19:44:15.572Z,66.27
2019-03-22T19:46:43.888Z,124.70
2019-03-22T19:49:11.861Z,86.83
2019-03-22T19:51:40.586Z,64.77
2019-03-22T19:54:08.673Z,64.27
2019-03-22T19:56:36.569Z,93.07
2019-03-22T19:59:04.360Z,75.33
2019-03-22T20:01:32.223Z,73.30
2019-03-22T20:04:00.061Z,67.47
2019-03-22T20:06:27.878Z,75.43
2019-03-22T20:08:55.807Z,76.47
2019-03-22T20:11:23.754Z,81.90
2019-03-22T20:13:51.622Z,97.60
2019-03-22T20:16:19.625Z,100.87
2019-03-22T20:18:47.474Z,103.37
2019-03-22T20:21:15.264Z,97.97
2019-03-22T20:23:53.078Z,126.83
2019-03-22T20:26:12.936Z,97.63
2019-03-22T20:28:40.768Z,106.20
2019-03-22T20:31:08.590Z,113.00
2019-03-22T20:33:39.275Z,106.20
2019-03-22T20:36:07.107Z,116.57
2019-03-22T20:38:34.902Z,147.63
2019-03-22T20:41:02.728Z,112.90
2019-03-22T20:43:33.173Z,114.47
2019-03-22T20:46:01.072Z,120.37
2019-03-22T20:48:28.917Z,140.53
2019-03-22T20:50:56.806Z,131.03
2019-03-22T20:53:24.692Z,156.37
2019-03-22T20:55:52.504Z,150.87
2019-03-22T20:58:20.354Z,136.00
2019-03-22T21:00:48.150Z,127.43
2019-03-22T21:03:15.991Z,130.73
2019-03-22T21:05:43.804Z,148.07
2019-03-22T21:08:11.749Z,132.80
2019-03-22T21:10:39.532Z,126.73
2019-03-22T21:13:07.309Z,107.30
2019-03-22T21:15:35.280Z,104.87
2019-03-22T21:18:03.171Z,105.00
2019-03-22T21:20:31.007Z,115.73
2019-03-22T21:22:58.885Z,123.53
2019-03-22T21:25:26.630Z,113.63
2019-03-22T21:27:54.482Z,132.77
2019-03-22T21:30:22.599Z,131.23
2019-03-22T21:32:50.503Z,125.97
2019-03-22T21:35:22.853Z,116.67
2019-03-22T21:37:48.304Z,111.27
2019-03-22T21:40:16.112Z,103.47
2019-03-22T21:42:46.294Z,90.93
2019-03-22T21:45:14.257Z,108.70
2019-03-22T21:47:42.039Z,94.87
2019-03-22T21:50:10.091Z,92.27
2019-03-22T21:52:40.725Z,102.80
2019-03-22T21:55:12.073Z,96.10
2019-03-22T21:57:39.823Z,95.13
2019-03-22T22:00:08.641Z,101.27
2019-03-22T22:02:39.282Z,85.53
2019-03-22T22:05:07.209Z,98.33
2019-03-22T22:07:34.991Z,96.93
2019-03-22T22:10:03.019Z,95.97
2019-03-22T22:12:30.810Z,94.47
2019-03-22T22:14:58.598Z,85.27
2019-03-22T22:17:26.459Z,96.53
2019-03-22T22:19:54.266Z,95.07
2019-03-22T22:22:22.193Z,96.20
2019-03-22T22:24:50.104Z,84.57
2019-03-22T22:27:17.893Z,98.77
2019-03-22T22:29:47.498Z,96.80
2019-03-22T22:32:15.411Z,99.87
2019-03-22T22:34:43.227Z,102.20
2019-03-22T22:37:11.072Z,97.37
2019-03-22T22:39:38.851Z,104.37
2019-03-22T22:42:06.723Z,100.40
2019-03-22T22:44:34.538Z,104.17
2019-03-22T22:47:02.355Z,103.70
2019-03-22T22:49:30.173Z,95.67
2019-03-22T22:51:57.988Z,99.00
2019-03-22T22:54:26.050Z,95.30
2019-03-22T22:56:53.864Z,103.80
2019-03-22T22:59:21.702Z,109.77
2019-03-22T23:01:49.534Z,108.27
2019-03-22T23:04:17.402Z,101.10
2019-03-22T23:06:45.244Z,93.90
2019-03-22T23:09:13.073Z,100.10
2019-03-22T23:11:40.867Z,101.37
2019-03-22T23:14:08.681Z,103.80
2019-03-22T23:16:36.677Z,96.27
2019-03-22T23:19:04.503Z,79.17
2019-03-22T23:21:32.330Z,77.50
2019-03-22T23:24:00.246Z,75.07
2019-03-22T23:26:28.056Z,74.03
2019-03-22T23:28:55.876Z,82.70
2019-03-22T23:31:23.776Z,80.50
2019-03-22T23:33:51.581Z,88.00
2019-03-22T23:36:20.452Z,75.07
2019-03-22T23:38:48.591Z,75.20
2019-03-22T23:41:16.476Z,77.77
2019-03-22T23:43:44.274Z,78.83
2019-03-22T23:46:12.075Z,82.10
2019-03-22T23:48:40.076Z,70.23
2019-03-22T23:51:07.948Z,70.83
2019-03-22T23:53:35.777Z,77.33
2019-03-22T23:56:03.632Z,77.50
2019-03-22T23:58:31.492Z,82.90
